sensor_id;sensor_type;location;lat;lon;timestamp;pressure;altitude;pressure_sealevel;temperature;humidity
54978;BME280;40873;47.522;19.106;2024-01-15T00:00:24;99161.34;;;-1.28;100.00
54978;BME280;40873;47.522;19.106;2024-01-15T00:03:12;99150.28;;;-1.33;100.00
54978;BME280;40873;47.522;19.106;2024-01-15T00:05:39;99142.41;;;-1.29;100.00
54978;BME280;40873;47.522;19.106;2024-01-15T00:08:09;99138.91;;;-1.28;100.00
54978;BME280;40873;47.522;19.106;2024-01-15T00:10:36;99141.59;;;-1.31;100.00
54978;BME280;40873;47.522;19.106;2024-01-15T00:13:03;99145.81;;;-1.28;100.00
54978;BME280;40873;47.522;19.106;2024-01-15T00:15:30;99144.94;;;-1.27;100.00
54978;BME280;40873;47.522;19.106;2024-01-15T00:17:57;99137.94;;;-1.25;100.00
54978;BME280;40873;47.522;19.106;2024-01-15T00:20:25;99128.63;;;-1.29;100.00
54978;BME280;40873;47.522;19.106;2024-01-15T00:22:57;99120.84;;;-1.29;100.00
54978;BME280;40873;47.522;19.106;2024-01-15T00:25:27;99112.91;;;-1.23;100.00
54978;BME280;40873;47.522;19.106;2024-01-15T00:27:58;99111.88;;;-1.19;100.00
54978;BME280;40873;47.522;19.106;2024-01-15T00:30:25;99098.16;;;-1.21;100.00
54978;BME280;40873;47.522;19.106;2024-01-15T00:32:55;99092.28;;;-1.26;100.00
54978;BME280;40873;47.522;19.106;2024-01-15T00:35:22;99088.44;;;-1.15;100.00
54978;BME280;40873;47.522;19.106;2024-01-15T00:37:52;99084.91;;;-1.12;100.00
54978;BME280;40873;47.522;19.106;2024-01-15T00:40:19;99081.66;;;-1.19;100.00
54978;BME280;40873;47.522;19.106;2024-01-15T00:42:47;99086.81;;;-1.17;100.00
54978;BME280;40873;47.522;19.106;2024-01-15T00:45:14;99080.75;;;-1.16;100.00
54978;BME280;40873;47.522;19.106;2024-01-15T00:47:41;99092.66;;;-1.12;100.00
54978;BME280;40873;47.522;19.106;2024-01-15T00:50:11;99091.75;;;-1.09;100.00
54978;BME280;40873;47.522;19.106;2024-01-15T00:52:39;99085.75;;;-1.12;100.00
54978;BME280;40873;47.522;19.106;2024-01-15T00:55:08;99086.72;;;-1.14;100.00
54978;BME280;40873;47.522;19.106;2024-01-15T00:57:36;99077.13;;;-1.12;100.00
54978;BME280;40873;47.522;19.106;2024-01-15T01:00:04;99078.88;;;-1.11;100.00
54978;BME280;40873;47.522;19.106;2024-01-15T01:02:33;99080.38;;;-1.05;100.00
54978;BME280;40873;47.522;19.106;2024-01-15T01:05:00;99076.94;;;-1.06;100.00
54978;BME280;40873;47.522;19.106;2024-01-15T01:07:27;99067.16;;;-0.98;100.00
54978;BME280;40873;47.522;19.106;2024-01-15T01:09:55;99072.41;;;-0.99;100.00
54978;BME280;40873;47.522;19.106;2024-01-15T01:12:22;99064.94;;;-0.82;100.00
54978;BME280;40873;47.522;19.106;2024-01-15T01:14:49;99062.16;;;-0.77;100.00
54978;BME280;40873;47.522;19.106;2024-01-15T01:17:16;99049.97;;;-0.74;100.00
54978;BME280;40873;47.522;19.106;2024-01-15T01:19:47;99047.53;;;-0.78;100.00
54978;BME280;40873;47.522;19.106;2024-01-15T01:22:14;99045.13;;;-0.83;100.00
54978;BME280;40873;47.522;19.106;2024-01-15T01:24:41;99042.88;;;-0.94;100.00
54978;BME280;40873;47.522;19.106;2024-01-15T01:27:08;99035.22;;;-0.97;100.00
54978;BME280;40873;47.522;19.106;2024-01-15T01:29:36;99029.81;;;-0.91;100.00
54978;BME280;40873;47.522;19.106;2024-01-15T01:32:03;99037.91;;;-1.00;100.00
54978;BME280;40873;47.522;19.106;2024-01-15T01:34:32;99029.56;;;-1.08;100.00
54978;BME280;40873;47.522;19.106;2024-01-15T01:37:00;99029.72;;;-1.13;100.00
54978;BME280;40873;47.522;19.106;2024-01-15T01:39:30;99028.34;;;-0.98;100.00
54978;BME280;40873;47.522;19.106;2024-01-15T01:41:58;99017.47;;;-0.82;100.00
54978;BME280;40873;47.522;19.106;2024-01-15T01:44:24;99010.28;;;-0.74;100.00
54978;BME280;40873;47.522;19.106;2024-01-15T01:46:52;99001.88;;;-0.81;100.00
54978;BME280;40873;47.522;19.106;2024-01-15T01:49:20;99007.31;;;-0.89;100.00
54978;BME280;40873;47.522;19.106;2024-01-15T01:51:47;99001.59;;;-0.98;100.00
54978;BME280;40873;47.522;19.106;2024-01-15T01:54:18;99007.13;;;-1.07;100.00
54978;BME280;40873;47.522;19.106;2024-01-15T01:56:47;98999.69;;;-1.17;100.00
54978;BME280;40873;47.522;19.106;2024-01-15T01:59:17;98990.38;;;-1.22;100.00
54978;BME280;40873;47.522;19.106;2024-01-15T02:01:46;98987.84;;;-1.24;100.00
54978;BME280;40873;47.522;19.106;2024-01-15T02:04:16;98974.16;;;-1.27;100.00
54978;BME280;40873;47.522;19.106;2024-01-15T02:06:48;98981.00;;;-1.26;100.00
54978;BME280;40873;47.522;19.106;2024-01-15T02:09:17;98977.31;;;-1.19;100.00
54978;BME280;40873;47.522;19.106;2024-01-15T02:11:48;98968.13;;;-1.28;100.00
54978;BME280;40873;47.522;19.106;2024-01-15T02:14:15;98949.81;;;-1.22;100.00
54978;BME280;40873;47.522;19.106;2024-01-15T02:16:45;98967.56;;;-1.36;100.00
54978;BME280;40873;47.522;19.106;2024-01-15T02:19:16;98965.94;;;-1.39;100.00
54978;BME280;40873;47.522;19.106;2024-01-15T02:21:46;98969.56;;;-1.44;100.00
54978;BME280;40873;47.522;19.106;2024-01-15T02:24:14;98971.13;;;-1.65;100.00
54978;BME280;40873;47.522;19.106;2024-01-15T02:26:42;98989.59;;;-1.77;100.00
54978;BME280;40873;47.522;19.106;2024-01-15T02:29:10;98979.16;;;-1.74;100.00
54978;BME280;40873;47.522;19.106;2024-01-15T02:31:37;98982.19;;;-1.61;100.00
54978;BME280;40873;47.522;19.106;2024-01-15T02:34:05;98963.50;;;-1.43;100.00
54978;BME280;40873;47.522;19.106;2024-01-15T02:36:32;98968.28;;;-1.57;100.00
54978;BME280;40873;47.522;19.106;2024-01-15T02:38:59;98954.78;;;-1.67;100.00
54978;BME280;40873;47.522;19.106;2024-01-15T02:41:27;98950.75;;;-1.49;100.00
54978;BME280;40873;47.522;19.106;2024-01-15T02:43:53;98946.44;;;-1.49;100.00
54978;BME280;40873;47.522;19.106;2024-01-15T02:46:23;98943.16;;;-1.54;100.00
54978;BME280;40873;47.522;19.106;2024-01-15T02:48:50;98937.66;;;-1.70;100.00
54978;BME280;40873;47.522;19.106;2024-01-15T02:51:18;98944.03;;;-1.80;100.00
54978;BME280;40873;47.522;19.106;2024-01-15T02:53:45;98942.63;;;-1.90;100.00
54978;BME280;40873;47.522;19.106;2024-01-15T02:56:12;98941.97;;;-1.97;100.00
54978;BME280;40873;47.522;19.106;2024-01-15T02:58:39;98940.41;;;-2.02;100.00
54978;BME280;40873;47.522;19.106;2024-01-15T03:01:08;98942.22;;;-2.04;100.00
54978;BME280;40873;47.522;19.106;2024-01-15T03:03:35;98941.97;;;-1.97;100.00
54978;BME280;40873;47.522;19.106;2024-01-15T03:06:06;98935.44;;;-1.80;100.00
54978;BME280;40873;47.522;19.106;2024-01-15T03:08:33;98929.88;;;-1.95;100.00
54978;BME280;40873;47.522;19.106;2024-01-15T03:11:02;98913.72;;;-2.03;100.00
54978;BME280;40873;47.522;19.106;2024-01-15T03:13:29;98919.84;;;-2.05;100.00
54978;BME280;40873;47.522;19.106;2024-01-15T03:15:56;98895.63;;;-2.01;100.00
54978;BME280;40873;47.522;19.106;2024-01-15T03:18:24;98905.97;;;-2.01;100.00
54978;BME280;40873;47.522;19.106;2024-01-15T03:20:51;98895.09;;;-1.86;100.00
54978;BME280;40873;47.522;19.106;2024-01-15T03:23:21;98901.56;;;-1.99;100.00
54978;BME280;40873;47.522;19.106;2024-01-15T03:25:50;98889.81;;;-2.08;100.00
54978;BME280;40873;47.522;19.106;2024-01-15T03:28:17;98890.97;;;-2.18;100.00
54978;BME280;40873;47.522;19.106;2024-01-15T03:30:45;98898.66;;;-2.16;100.00
54978;BME280;40873;47.522;19.106;2024-01-15T03:33:12;98908.13;;;-2.15;100.00
54978;BME280;40873;47.522;19.106;2024-01-15T03:35:39;98903.00;;;-2.17;100.00
54978;BME280;40873;47.522;19.106;2024-01-15T03:38:06;98905.56;;;-2.15;100.00
54978;BME280;40873;47.522;19.106;2024-01-15T03:40:33;98931.47;;;-2.18;100.00
54978;BME280;40873;47.522;19.106;2024-01-15T03:43:01;98907.19;;;-2.13;100.00
54978;BME280;40873;47.522;19.106;2024-01-15T03:45:28;98909.72;;;-2.11;100.00
54978;BME280;40873;47.522;19.106;2024-01-15T03:47:55;98935.78;;;-2.19;100.00
54978;BME280;40873;47.522;19.106;2024-01-15T03:50:22;98933.16;;;-2.17;100.00
54978;BME280;40873;47.522;19.106;2024-01-15T03:52:49;98941.91;;;-2.22;100.00
54978;BME280;40873;47.522;19.106;2024-01-15T03:55:16;98922.88;;;-2.19;100.00
54978;BME280;40873;47.522;19.106;2024-01-15T03:57:43;98923.09;;;-1.99;100.00
54978;BME280;40873;47.522;19.106;2024-01-15T04:00:11;98911.41;;;-2.10;100.00
54978;BME280;40873;47.522;19.106;2024-01-15T04:02:38;98928.81;;;-2.15;100.00
54978;BME280;40873;47.522;19.106;2024-01-15T04:05:05;98912.53;;;-2.19;100.00
54978;BME280;40873;47.522;19.106;2024-01-15T04:07:35;98904.78;;;-2.19;100.00
54978;BME280;40873;47.522;19.106;2024-01-15T04:10:02;98917.59;;;-2.16;100.00
54978;BME280;40873;47.522;19.106;2024-01-15T04:12:29;98902.97;;;-2.15;100.00
54978;BME280;40873;47.522;19.106;2024-01-15T04:14:57;98896.53;;;-2.04;100.00
54978;BME280;40873;47.522;19.106;2024-01-15T04:17:24;98882.06;;;-2.08;100.00
54978;BME280;40873;47.522;19.106;2024-01-15T04:19:51;98879.81;;;-1.92;100.00
54978;BME280;40873;47.522;19.106;2024-01-15T04:22:18;98873.00;;;-1.95;100.00
54978;BME280;40873;47.522;19.106;2024-01-15T04:24:45;98875.41;;;-1.90;100.00
54978;BME280;40873;47.522;19.106;2024-01-15T04:27:12;98867.19;;;-2.01;100.00
54978;BME280;40873;47.522;19.106;2024-01-15T04:29:42;98856.41;;;-2.14;100.00
54978;BME280;40873;47.522;19.106;2024-01-15T04:32:11;98872.50;;;-2.32;100.00
54978;BME280;40873;47.522;19.106;2024-01-15T04:34:43;98864.69;;;-2.31;100.00
54978;BME280;40873;47.522;19.106;2024-01-15T04:37:10;98871.19;;;-2.45;100.00
54978;BME280;40873;47.522;19.106;2024-01-15T04:39:40;98863.38;;;-2.44;100.00
54978;BME280;40873;47.522;19.106;2024-01-15T04:42:08;98866.91;;;-2.46;100.00
54978;BME280;40873;47.522;19.106;2024-01-15T04:44:35;98874.88;;;-2.26;100.00
54978;BME280;40873;47.522;19.106;2024-01-15T04:47:02;98860.66;;;-2.39;100.00
54978;BME280;40873;47.522;19.106;2024-01-15T04:49:29;98875.56;;;-2.47;100.00
54978;BME280;40873;47.522;19.106;2024-01-15T04:51:56;98869.56;;;-2.48;100.00
54978;BME280;40873;47.522;19.106;2024-01-15T04:54:27;98867.94;;;-2.52;100.00
54978;BME280;40873;47.522;19.106;2024-01-15T04:56:54;98861.16;;;-2.55;100.00
54978;BME280;40873;47.522;19.106;2024-01-15T04:59:21;98872.63;;;-2.63;100.00
54978;BME280;40873;47.522;19.106;2024-01-15T05:01:48;98865.66;;;-2.61;100.00
54978;BME280;40873;47.522;19.106;2024-01-15T05:04:16;98867.69;;;-2.44;100.00
54978;BME280;40873;47.522;19.106;2024-01-15T05:06:43;98860.81;;;-2.17;100.00
54978;BME280;40873;47.522;19.106;2024-01-15T05:09:14;98883.06;;;-2.40;100.00
54978;BME280;40873;47.522;19.106;2024-01-15T05:11:41;98890.22;;;-2.48;100.00
54978;BME280;40873;47.522;19.106;2024-01-15T05:14:08;98872.28;;;-2.53;100.00
54978;BME280;40873;47.522;19.106;2024-01-15T05:16:47;98888.53;;;-2.51;100.00
54978;BME280;40873;47.522;19.106;2024-01-15T05:19:15;98893.09;;;-2.57;100.00
54978;BME280;40873;47.522;19.106;2024-01-15T05:21:42;98888.97;;;-2.64;100.00
54978;BME280;40873;47.522;19.106;2024-01-15T05:24:12;98891.56;;;-2.64;100.00
54978;BME280;40873;47.522;19.106;2024-01-15T05:26:39;98892.50;;;-2.67;100.00
54978;BME280;40873;47.522;19.106;2024-01-15T05:29:06;98888.22;;;-2.68;100.00
54978;BME280;40873;47.522;19.106;2024-01-15T05:31:36;98885.00;;;-2.74;100.00
54978;BME280;40873;47.522;19.106;2024-01-15T05:34:06;98884.28;;;-2.80;100.00
54978;BME280;40873;47.522;19.106;2024-01-15T05:36:33;98886.06;;;-2.82;100.00
54978;BME280;40873;47.522;19.106;2024-01-15T05:39:00;98886.13;;;-2.83;100.00
54978;BME280;40873;47.522;19.106;2024-01-15T05:41:29;98892.84;;;-2.79;100.00
54978;BME280;40873;47.522;19.106;2024-01-15T05:44:00;98888.75;;;-2.86;100.00
54978;BME280;40873;47.522;19.106;2024-01-15T05:46:27;98893.13;;;-2.88;100.00
54978;BME280;40873;47.522;19.106;2024-01-15T05:48:54;98894.81;;;-2.87;100.00
54978;BME280;40873;47.522;19.106;2024-01-15T05:51:21;98899.19;;;-2.89;100.00
54978;BME280;40873;47.522;19.106;2024-01-15T05:53:52;98910.41;;;-2.90;100.00
54978;BME280;40873;47.522;19.106;2024-01-15T05:56:19;98897.50;;;-2.90;100.00
54978;BME280;40873;47.522;19.106;2024-01-15T05:58:49;98902.75;;;-2.93;100.00
54978;BME280;40873;47.522;19.106;2024-01-15T06:01:16;98892.59;;;-2.99;100.00
54978;BME280;40873;47.522;19.106;2024-01-15T06:03:46;98884.19;;;-3.06;100.00
54978;BME280;40873;47.522;19.106;2024-01-15T06:06:13;98872.09;;;-3.04;100.00
54978;BME280;40873;47.522;19.106;2024-01-15T06:08:42;98866.78;;;-2.99;100.00
54978;BME280;40873;47.522;19.106;2024-01-15T06:11:08;98860.34;;;-2.85;100.00
54978;BME280;40873;47.522;19.106;2024-01-15T06:13:38;98868.22;;;-2.89;100.00
54978;BME280;40873;47.522;19.106;2024-01-15T06:16:13;98865.59;;;-2.88;100.00
54978;BME280;40873;47.522;19.106;2024-01-15T06:18:41;98867.22;;;-2.85;100.00
54978;BME280;40873;47.522;19.106;2024-01-15T06:21:08;98876.69;;;-2.86;100.00
54978;BME280;40873;47.522;19.106;2024-01-15T06:23:40;98881.78;;;-2.83;100.00
54978;BME280;40873;47.522;19.106;2024-01-15T06:26:07;98869.59;;;-2.50;100.00
54978;BME280;40873;47.522;19.106;2024-01-15T06:28:34;98879.97;;;-2.51;100.00
54978;BME280;40873;47.522;19.106;2024-01-15T06:31:08;98861.31;;;-2.33;100.00
54978;BME280;40873;47.522;19.106;2024-01-15T06:33:35;98872.25;;;-2.25;100.00
54978;BME280;40873;47.522;19.106;2024-01-15T06:36:02;98876.38;;;-2.19;100.00
54978;BME280;40873;47.522;19.106;2024-01-15T06:38:33;98867.03;;;-2.51;100.00
54978;BME280;40873;47.522;19.106;2024-01-15T06:41:00;98881.31;;;-2.39;100.00
54978;BME280;40873;47.522;19.106;2024-01-15T06:43:30;98883.13;;;-2.41;100.00
54978;BME280;40873;47.522;19.106;2024-01-15T06:45:57;98881.13;;;-2.33;100.00
54978;BME280;40873;47.522;19.106;2024-01-15T06:48:25;98891.84;;;-2.45;100.00
54978;BME280;40873;47.522;19.106;2024-01-15T06:50:53;98891.06;;;-2.47;100.00
54978;BME280;40873;47.522;19.106;2024-01-15T06:53:21;98890.09;;;-2.45;100.00
54978;BME280;40873;47.522;19.106;2024-01-15T06:55:51;98886.69;;;-2.45;100.00
54978;BME280;40873;47.522;19.106;2024-01-15T06:58:18;98875.09;;;-2.60;100.00
54978;BME280;40873;47.522;19.106;2024-01-15T07:00:48;98877.44;;;-2.53;100.00
54978;BME280;40873;47.522;19.106;2024-01-15T07:03:18;98880.63;;;-2.44;100.00
54978;BME280;40873;47.522;19.106;2024-01-15T07:05:45;98877.59;;;-2.31;100.00
54978;BME280;40873;47.522;19.106;2024-01-15T07:08:12;98887.50;;;-2.17;100.00
54978;BME280;40873;47.522;19.106;2024-01-15T07:10:39;98892.97;;;-2.26;100.00
54978;BME280;40873;47.522;19.106;2024-01-15T07:13:08;98900.41;;;-2.17;100.00
54978;BME280;40873;47.522;19.106;2024-01-15T07:15:35;98884.25;;;-2.22;100.00
54978;BME280;40873;47.522;19.106;2024-01-15T07:18:03;98898.97;;;-2.26;100.00
54978;BME280;40873;47.522;19.106;2024-01-15T07:20:31;98898.25;;;-2.29;100.00
54978;BME280;40873;47.522;19.106;2024-01-15T07:22:58;98899.50;;;-2.42;100.00
54978;BME280;40873;47.522;19.106;2024-01-15T07:25:25;98914.94;;;-2.41;100.00
54978;BME280;40873;47.522;19.106;2024-01-15T07:27:53;98908.13;;;-2.43;100.00
54978;BME280;40873;47.522;19.106;2024-01-15T07:30:21;98917.72;;;-2.47;100.00
54978;BME280;40873;47.522;19.106;2024-01-15T07:32:51;98905.09;;;-2.28;100.00
54978;BME280;40873;47.522;19.106;2024-01-15T07:35:21;98908.28;;;-2.20;100.00
54978;BME280;40873;47.522;19.106;2024-01-15T07:37:48;98908.28;;;-2.20;100.00
54978;BME280;40873;47.522;19.106;2024-01-15T07:40:15;98914.94;;;-2.13;100.00
54978;BME280;40873;47.522;19.106;2024-01-15T07:42:43;98921.41;;;-2.00;100.00
54978;BME280;40873;47.522;19.106;2024-01-15T07:45:10;98923.59;;;-1.87;100.00
54978;BME280;40873;47.522;19.106;2024-01-15T07:47:40;98932.44;;;-1.95;100.00
54978;BME280;40873;47.522;19.106;2024-01-15T07:50:08;98933.44;;;-1.99;100.00
54978;BME280;40873;47.522;19.106;2024-01-15T07:52:35;98935.06;;;-1.96;100.00
54978;BME280;40873;47.522;19.106;2024-01-15T07:55:02;98932.66;;;-2.01;100.00
54978;BME280;40873;47.522;19.106;2024-01-15T07:57:38;98930.13;;;-2.04;100.00
54978;BME280;40873;47.522;19.106;2024-01-15T08:00:06;98925.09;;;-2.07;100.00
54978;BME280;40873;47.522;19.106;2024-01-15T08:02:36;98925.97;;;-2.08;100.00
54978;BME280;40873;47.522;19.106;2024-01-15T08:05:05;98913.69;;;-1.75;100.00
54978;BME280;40873;47.522;19.106;2024-01-15T08:07:32;98907.38;;;-1.66;100.00
54978;BME280;40873;47.522;19.106;2024-01-15T08:09:59;98925.34;;;-1.63;100.00
54978;BME280;40873;47.522;19.106;2024-01-15T08:12:27;98928.44;;;-1.52;100.00
54978;BME280;40873;47.522;19.106;2024-01-15T08:14:54;98934.19;;;-1.44;100.00
54978;BME280;40873;47.522;19.106;2024-01-15T08:17:22;98941.63;;;-1.34;100.00
54978;BME280;40873;47.522;19.106;2024-01-15T08:19:50;98943.09;;;-1.27;100.00
54978;BME280;40873;47.522;19.106;2024-01-15T08:22:17;98951.16;;;-1.12;100.00
54978;BME280;40873;47.522;19.106;2024-01-15T08:24:44;98949.75;;;-0.95;100.00
54978;BME280;40873;47.522;19.106;2024-01-15T08:27:16;98949.06;;;-0.77;100.00
54978;BME280;40873;47.522;19.106;2024-01-15T08:29:43;98941.28;;;-0.53;100.00
54978;BME280;40873;47.522;19.106;2024-01-15T08:32:11;98955.34;;;-0.37;100.00
54978;BME280;40873;47.522;19.106;2024-01-15T08:34:41;98937.44;;;-0.21;100.00
54978;BME280;40873;47.522;19.106;2024-01-15T08:37:12;98953.50;;;-0.12;100.00
54978;BME280;40873;47.522;19.106;2024-01-15T08:39:39;98961.97;;;-0.07;100.00
54978;BME280;40873;47.522;19.106;2024-01-15T08:42:06;98952.91;;;0.04;100.00
54978;BME280;40873;47.522;19.106;2024-01-15T08:44:33;98953.50;;;0.10;100.00
54978;BME280;40873;47.522;19.106;2024-01-15T08:47:00;98954.94;;;0.17;100.00
54978;BME280;40873;47.522;19.106;2024-01-15T08:49:27;98958.00;;;0.27;100.00
54978;BME280;40873;47.522;19.106;2024-01-15T08:51:56;98963.66;;;0.37;100.00
54978;BME280;40873;47.522;19.106;2024-01-15T08:54:23;98960.50;;;0.50;100.00
54978;BME280;40873;47.522;19.106;2024-01-15T08:56:50;98959.28;;;0.59;100.00
54978;BME280;40873;47.522;19.106;2024-01-15T08:59:17;98961.44;;;0.70;100.00
54978;BME280;40873;47.522;19.106;2024-01-15T09:01:54;98970.34;;;0.83;100.00
54978;BME280;40873;47.522;19.106;2024-01-15T09:04:23;98964.13;;;0.87;100.00
54978;BME280;40873;47.522;19.106;2024-01-15T09:06:51;98967.91;;;1.00;100.00
54978;BME280;40873;47.522;19.106;2024-01-15T09:09:18;98968.28;;;1.12;100.00
54978;BME280;40873;47.522;19.106;2024-01-15T09:11:45;98976.44;;;1.23;100.00
54978;BME280;40873;47.522;19.106;2024-01-15T09:14:12;98983.34;;;1.43;100.00
54978;BME280;40873;47.522;19.106;2024-01-15T09:16:43;98975.75;;;1.57;100.00
54978;BME280;40873;47.522;19.106;2024-01-15T09:19:10;98975.06;;;1.72;100.00
54978;BME280;40873;47.522;19.106;2024-01-15T09:21:38;98963.72;;;1.92;100.00
54978;BME280;40873;47.522;19.106;2024-01-15T09:24:06;98964.38;;;2.14;100.00
54978;BME280;40873;47.522;19.106;2024-01-15T09:26:34;98959.31;;;2.30;100.00
54978;BME280;40873;47.522;19.106;2024-01-15T09:29:01;98961.06;;;2.47;100.00
54978;BME280;40873;47.522;19.106;2024-01-15T09:31:31;98937.56;;;2.66;100.00
54978;BME280;40873;47.522;19.106;2024-01-15T09:33:58;98936.38;;;2.89;100.00
54978;BME280;40873;47.522;19.106;2024-01-15T09:36:30;98942.22;;;2.77;100.00
54978;BME280;40873;47.522;19.106;2024-01-15T09:38:58;98952.59;;;3.11;100.00
54978;BME280;40873;47.522;19.106;2024-01-15T09:41:25;98939.13;;;3.52;96.85
54978;BME280;40873;47.522;19.106;2024-01-15T09:43:52;98928.88;;;3.49;95.28
54978;BME280;40873;47.522;19.106;2024-01-15T09:46:22;98924.75;;;3.61;93.88
54978;BME280;40873;47.522;19.106;2024-01-15T09:48:49;98915.72;;;3.82;93.66
54978;BME280;40873;47.522;19.106;2024-01-15T09:51:17;98921.50;;;4.19;91.24
54978;BME280;40873;47.522;19.106;2024-01-15T09:53:44;98910.78;;;4.23;90.90
54978;BME280;40873;47.522;19.106;2024-01-15T09:56:13;98905.09;;;4.47;90.40
54978;BME280;40873;47.522;19.106;2024-01-15T09:58:40;98897.13;;;4.34;88.22
54978;BME280;40873;47.522;19.106;2024-01-15T10:01:09;98898.13;;;4.61;87.58
54978;BME280;40873;47.522;19.106;2024-01-15T10:03:38;98893.41;;;4.38;86.65
54978;BME280;40873;47.522;19.106;2024-01-15T10:06:08;98895.34;;;4.34;87.77
54978;BME280;40873;47.522;19.106;2024-01-15T10:08:36;98882.78;;;4.41;87.16
54978;BME280;40873;47.522;19.106;2024-01-15T10:11:07;98887.25;;;4.83;86.48
54978;BME280;40873;47.522;19.106;2024-01-15T10:13:35;98885.28;;;4.87;86.09
54978;BME280;40873;47.522;19.106;2024-01-15T10:16:08;98891.34;;;4.73;78.18
54978;BME280;40873;47.522;19.106;2024-01-15T10:18:34;98886.13;;;4.73;78.35
54978;BME280;40873;47.522;19.106;2024-01-15T10:21:04;98872.31;;;5.00;78.03
54978;BME280;40873;47.522;19.106;2024-01-15T10:23:32;98877.06;;;4.93;75.96
54978;BME280;40873;47.522;19.106;2024-01-15T10:26:02;98864.25;;;5.45;75.26
54978;BME280;40873;47.522;19.106;2024-01-15T10:28:30;98865.81;;;5.48;73.75
54978;BME280;40873;47.522;19.106;2024-01-15T10:30:59;98864.69;;;5.52;71.72
54978;BME280;40873;47.522;19.106;2024-01-15T10:33:27;98848.25;;;5.50;71.32
54978;BME280;40873;47.522;19.106;2024-01-15T10:35:59;98851.19;;;5.31;71.35
54978;BME280;40873;47.522;19.106;2024-01-15T10:38:26;98858.19;;;5.31;70.90
54978;BME280;40873;47.522;19.106;2024-01-15T10:40:55;98849.94;;;5.51;69.58
54978;BME280;40873;47.522;19.106;2024-01-15T10:43:22;98851.22;;;5.58;69.57
54978;BME280;40873;47.522;19.106;2024-01-15T10:45:55;98849.06;;;5.65;69.93
54978;BME280;40873;47.522;19.106;2024-01-15T10:48:22;98856.72;;;5.12;71.37
54978;BME280;40873;47.522;19.106;2024-01-15T10:50:50;98868.22;;;4.81;72.63
54978;BME280;40873;47.522;19.106;2024-01-15T10:53:17;98858.22;;;4.74;72.47
54978;BME280;40873;47.522;19.106;2024-01-15T10:55:46;98860.38;;;4.95;72.04
54978;BME280;40873;47.522;19.106;2024-01-15T10:58:15;98865.38;;;4.70;73.23
54978;BME280;40873;47.522;19.106;2024-01-15T11:00:44;98854.75;;;5.16;72.38
54978;BME280;40873;47.522;19.106;2024-01-15T11:03:12;98857.50;;;5.41;71.28
54978;BME280;40873;47.522;19.106;2024-01-15T11:05:44;98859.81;;;5.60;70.34
54978;BME280;40873;47.522;19.106;2024-01-15T11:08:11;98845.69;;;5.90;69.96
54978;BME280;40873;47.522;19.106;2024-01-15T11:10:40;98841.63;;;6.38;68.56
54978;BME280;40873;47.522;19.106;2024-01-15T11:13:39;98842.53;;;6.12;68.92
54978;BME280;40873;47.522;19.106;2024-01-15T11:16:13;98832.16;;;6.10;68.09
54978;BME280;40873;47.522;19.106;2024-01-15T11:18:43;98834.44;;;6.54;67.84
54978;BME280;40873;47.522;19.106;2024-01-15T11:24:03;98827.75;;;5.84;68.97
54978;BME280;40873;47.522;19.106;2024-01-15T11:26:36;98829.81;;;6.45;68.32
54978;BME280;40873;47.522;19.106;2024-01-15T11:29:05;98825.91;;;5.86;69.02
54978;BME280;40873;47.522;19.106;2024-01-15T11:34:04;98832.56;;;6.04;68.54
54978;BME280;40873;47.522;19.106;2024-01-15T11:41:55;98821.72;;;6.23;67.44
54978;BME280;40873;47.522;19.106;2024-01-15T11:44:22;98821.31;;;6.67;67.70
54978;BME280;40873;47.522;19.106;2024-01-15T11:47:07;98830.22;;;6.39;67.37
54978;BME280;40873;47.522;19.106;2024-01-15T11:52:32;98813.03;;;5.41;70.02
54978;BME280;40873;47.522;19.106;2024-01-15T11:55:34;98815.63;;;5.00;71.43
54978;BME280;40873;47.522;19.106;2024-01-15T11:58:08;98794.75;;;4.72;72.80
54978;BME280;40873;47.522;19.106;2024-01-15T12:00:40;98798.94;;;5.03;73.58
54978;BME280;40873;47.522;19.106;2024-01-15T12:03:09;98794.34;;;5.06;72.51
54978;BME280;40873;47.522;19.106;2024-01-15T12:05:40;98804.28;;;5.01;72.25
54978;BME280;40873;47.522;19.106;2024-01-15T12:08:09;98792.50;;;4.80;72.85
54978;BME280;40873;47.522;19.106;2024-01-15T12:10:41;98803.97;;;4.91;72.63
54978;BME280;40873;47.522;19.106;2024-01-15T12:13:16;98802.97;;;4.65;73.20
54978;BME280;40873;47.522;19.106;2024-01-15T12:15:46;98798.69;;;4.64;72.85
54978;BME280;40873;47.522;19.106;2024-01-15T12:18:18;98789.25;;;4.62;72.45
54978;BME280;40873;47.522;19.106;2024-01-15T12:20:46;98796.34;;;4.46;71.96
54978;BME280;40873;47.522;19.106;2024-01-15T12:23:15;98788.31;;;4.34;73.28
54978;BME280;40873;47.522;19.106;2024-01-15T12:25:43;98790.56;;;4.40;73.54
54978;BME280;40873;47.522;19.106;2024-01-15T12:28:11;98787.28;;;4.37;74.26
54978;BME280;40873;47.522;19.106;2024-01-15T12:30:38;98785.59;;;4.36;73.77
54978;BME280;40873;47.522;19.106;2024-01-15T12:33:07;98766.22;;;4.40;73.65
54978;BME280;40873;47.522;19.106;2024-01-15T12:35:36;98759.72;;;4.03;74.63
54978;BME280;40873;47.522;19.106;2024-01-15T12:38:04;98759.91;;;4.00;75.46
54978;BME280;40873;47.522;19.106;2024-01-15T12:40:33;98765.16;;;4.14;75.48
54978;BME280;40873;47.522;19.106;2024-01-15T12:43:02;98772.63;;;4.20;75.23
54978;BME280;40873;47.522;19.106;2024-01-15T12:45:30;98758.16;;;4.00;75.16
54978;BME280;40873;47.522;19.106;2024-01-15T12:47:58;98750.69;;;3.94;76.15
54978;BME280;40873;47.522;19.106;2024-01-15T12:50:27;98754.44;;;4.04;75.70
54978;BME280;40873;47.522;19.106;2024-01-15T12:52:54;98749.56;;;3.98;75.81
54978;BME280;40873;47.522;19.106;2024-01-15T12:55:23;98751.63;;;4.07;75.67
54978;BME280;40873;47.522;19.106;2024-01-15T12:57:51;98741.19;;;4.07;76.07
54978;BME280;40873;47.522;19.106;2024-01-15T13:00:22;98751.34;;;3.98;76.56
54978;BME280;40873;47.522;19.106;2024-01-15T13:02:50;98742.94;;;3.93;77.11
54978;BME280;40873;47.522;19.106;2024-01-15T13:05:17;98749.75;;;3.95;76.96